createdAt,value
2022-08-23T00:00:45.398Z,93.48
2022-08-23T00:01:38.931Z,91.91
2022-08-23T00:02:28.057Z,95.06
2022-08-23T00:03:14.629Z,92.88
2022-08-23T00:04:10.101Z,94.13
2022-08-23T00:05:08.676Z,93.21
2022-08-23T00:05:56.004Z,91.15
2022-08-23T00:06:42.961Z,94.18
2022-08-23T00:07:29.824Z,92.37
2022-08-23T00:08:16.455Z,93.80
2022-08-23T00:09:05.470Z,95.11
2022-08-23T00:09:52.118Z,95.90
2022-08-23T00:10:38.835Z,99.07
2022-08-23T00:11:28.079Z,100.00
2022-08-23T00:12:21.238Z,100.00
2022-08-23T00:13:07.687Z,100.00
2022-08-23T00:13:54.676Z,100.00
2022-08-23T00:14:48.315Z,100.00
2022-08-23T00:15:34.840Z,98.64
2022-08-23T00:16:22.140Z,98.90
2022-08-23T00:17:09.591Z,100.00
2022-08-23T00:17:56.334Z,100.00
2022-08-23T00:18:49.023Z,99.29
2022-08-23T00:19:36.929Z,99.83
2022-08-23T00:20:23.565Z,98.47
2022-08-23T00:21:13.118Z,97.73
2022-08-23T00:21:59.888Z,97.58
2022-08-23T00:22:46.847Z,97.70
2022-08-23T00:23:33.382Z,98.78
2022-08-23T00:24:22.614Z,97.00
2022-08-23T00:25:13.148Z,100.00
2022-08-23T00:26:03.349Z,100.00
2022-08-23T00:26:57.475Z,100.00
2022-08-23T00:27:44.711Z,100.00
2022-08-23T00:28:31.838Z,100.00
2022-08-23T00:29:18.644Z,100.00
2022-08-23T00:30:08.701Z,100.00
2022-08-23T00:30:55.213Z,100.00
2022-08-23T00:31:41.842Z,100.00
2022-08-23T00:32:35.341Z,100.00
2022-08-23T00:33:21.836Z,100.00
2022-08-23T00:34:08.535Z,100.00
2022-08-23T00:34:56.351Z,100.00
2022-08-23T00:35:42.873Z,100.00
2022-08-23T00:36:29.357Z,100.00
2022-08-23T00:37:17.432Z,100.00
2022-08-23T00:38:32.263Z,100.00
2022-08-23T00:39:11.431Z,100.00
2022-08-23T00:39:59.368Z,100.00
2022-08-23T00:40:51.198Z,100.00
2022-08-23T00:41:38.469Z,100.00
2022-08-23T00:43:15.551Z,100.00
2022-08-23T00:44:22.865Z,100.00
2022-08-23T00:45:34.454Z,100.00
2022-08-23T00:47:01.245Z,100.00
2022-08-23T00:47:48.551Z,100.00
2022-08-23T00:48:37.739Z,100.00
2022-08-23T00:49:25.525Z,100.00
2022-08-23T00:50:32.987Z,100.00
2022-08-23T00:51:55.434Z,100.00
2022-08-23T00:52:58.592Z,100.00
2022-08-23T00:53:52.008Z,100.00
2022-08-23T00:54:43.156Z,100.00
2022-08-23T00:55:30.657Z,100.00
2022-08-23T00:56:19.999Z,100.00
2022-08-23T00:57:13.361Z,100.00
2022-08-23T00:58:01.426Z,100.00
2022-08-23T00:58:49.474Z,100.00
2022-08-23T00:59:36.568Z,100.00
2022-08-23T01:00:23.674Z,100.00
2022-08-23T01:01:10.126Z,100.00
2022-08-23T01:01:57.645Z,100.00
2022-08-23T01:02:48.520Z,100.00
2022-08-23T01:03:39.640Z,100.00
2022-08-23T01:04:33.304Z,100.00
2022-08-23T01:05:26.788Z,100.00
2022-08-23T01:06:19.187Z,100.00
2022-08-23T01:07:27.250Z,100.00
2022-08-23T01:08:14.997Z,100.00
2022-08-23T01:09:07.665Z,100.00
2022-08-23T01:10:01.057Z,100.00
2022-08-23T01:11:01.720Z,100.00
2022-08-23T01:12:04.878Z,100.00
2022-08-23T01:13:03.203Z,100.00
2022-08-23T01:13:55.672Z,100.00
2022-08-23T01:14:54.274Z,100.00
2022-08-23T01:16:01.081Z,100.00
2022-08-23T01:16:56.564Z,100.00
2022-08-23T01:17:53.531Z,100.00
2022-08-23T01:18:43.426Z,100.00
2022-08-23T01:19:35.177Z,100.00
2022-08-23T01:20:26.974Z,100.00
2022-08-23T01:21:23.762Z,100.00
2022-08-23T01:22:26.976Z,100.00
2022-08-23T01:23:26.187Z,100.00
2022-08-23T01:24:19.296Z,100.00
2022-08-23T01:25:23.320Z,100.00
2022-08-23T01:26:11.981Z,100.00
2022-08-23T01:26:58.794Z,100.00
2022-08-23T01:27:46.257Z,100.00
2022-08-23T01:28:36.022Z,100.00
2022-08-23T01:29:22.741Z,100.00
2022-08-23T01:30:14.406Z,100.00
2022-08-23T01:31:01.584Z,100.00
2022-08-23T01:31:50.310Z,100.00
2022-08-23T01:32:45.701Z,100.00
2022-08-23T01:33:32.199Z,100.00
2022-08-23T01:34:18.715Z,100.00
2022-08-23T01:35:06.369Z,100.00
2022-08-23T01:35:56.946Z,100.00
2022-08-23T01:36:45.495Z,100.00
2022-08-23T01:37:34.086Z,100.00
2022-08-23T01:38:21.136Z,100.00
2022-08-23T01:39:08.187Z,100.00
2022-08-23T01:39:55.282Z,100.00
2022-08-23T01:40:42.604Z,100.00
2022-08-23T01:41:30.012Z,100.00
2022-08-23T01:42:16.548Z,100.00
2022-08-23T01:43:04.625Z,100.00
2022-08-23T01:43:51.862Z,100.00
2022-08-23T01:44:43.680Z,100.00
2022-08-23T01:45:31.336Z,100.00
2022-08-23T01:46:22.324Z,100.00
2022-08-23T01:47:09.261Z,100.00
2022-08-23T01:47:56.272Z,100.00
2022-08-23T01:48:46.140Z,100.00
2022-08-23T01:49:34.983Z,100.00
2022-08-23T01:50:22.705Z,100.00
2022-08-23T01:51:09.362Z,100.00
2022-08-23T01:51:56.223Z,100.00
2022-08-23T01:52:46.877Z,100.00
2022-08-23T01:53:34.535Z,100.00
2022-08-23T01:54:21.360Z,100.00
2022-08-23T01:55:08.444Z,100.00
2022-08-23T01:56:01.510Z,100.00
2022-08-23T01:56:51.164Z,100.00
2022-08-23T01:57:40.631Z,100.00
2022-08-23T01:58:30.771Z,100.00
2022-08-23T01:59:17.695Z,100.00
2022-08-23T02:00:08.679Z,100.00
2022-08-23T02:01:00.482Z,100.00
2022-08-23T02:01:47.651Z,100.00
2022-08-23T02:02:35.074Z,100.00
2022-08-23T02:03:21.793Z,100.00
2022-08-23T02:04:08.560Z,100.00
2022-08-23T02:04:55.082Z,100.00
2022-08-23T02:05:42.650Z,100.00
2022-08-23T02:06:31.099Z,100.00
2022-08-23T02:07:19.059Z,100.00
2022-08-23T02:08:26.572Z,100.00
2022-08-23T02:09:17.266Z,100.00
2022-08-23T02:10:07.272Z,100.00
2022-08-23T02:10:55.811Z,100.00
2022-08-23T02:11:44.098Z,100.00
2022-08-23T02:12:31.329Z,100.00
2022-08-23T02:13:29.486Z,100.00
2022-08-23T02:14:20.334Z,100.00
2022-08-23T02:15:10.091Z,100.00
2022-08-23T02:15:59.825Z,100.00
2022-08-23T02:17:03.704Z,100.00
2022-08-23T02:17:55.795Z,100.00
2022-08-23T02:18:43.311Z,100.00
2022-08-23T02:19:32.147Z,100.00
2022-08-23T02:20:19.316Z,100.00
2022-08-23T02:21:05.819Z,100.00
2022-08-23T02:21:53.060Z,100.00
2022-08-23T02:22:40.408Z,100.00
2022-08-23T02:23:28.211Z,100.00
2022-08-23T02:24:19.134Z,100.00
2022-08-23T02:25:06.574Z,100.00
2022-08-23T02:25:53.520Z,100.00
2022-08-23T02:26:46.477Z,100.00
2022-08-23T02:27:33.985Z,100.00
2022-08-23T02:28:23.160Z,100.00
2022-08-23T02:29:09.847Z,100.00
2022-08-23T02:29:56.475Z,100.00
2022-08-23T02:30:46.084Z,100.00
2022-08-23T02:31:34.411Z,100.00
2022-08-23T02:32:21.137Z,100.00
2022-08-23T02:33:08.061Z,100.00
2022-08-23T02:35:21.200Z,100.00
2022-08-23T02:36:08.172Z,100.00
2022-08-23T02:36:55.417Z,100.00
2022-08-23T02:37:44.490Z,100.00
2022-08-23T02:38:31.158Z,100.00
2022-08-23T02:39:19.098Z,100.00
2022-08-23T02:40:07.342Z,100.00
2022-08-23T02:41:00.926Z,100.00
2022-08-23T02:41:50.280Z,100.00
2022-08-23T02:42:37.510Z,100.00
2022-08-23T02:43:24.110Z,100.00
2022-08-23T02:44:11.121Z,100.00
2022-08-23T02:44:59.267Z,100.00
2022-08-23T02:45:45.894Z,100.00
2022-08-23T02:46:34.107Z,100.00
2022-08-23T02:47:20.767Z,100.00
2022-08-23T02:48:20.434Z,100.00
2022-08-23T02:49:18.639Z,100.00
2022-08-23T02:50:08.632Z,100.00
2022-08-23T02:51:00.636Z,100.00
2022-08-23T02:51:47.282Z,100.00
2022-08-23T02:52:34.675Z,100.00
2022-08-23T02:53:21.291Z,100.00
2022-08-23T02:54:08.140Z,100.00
2022-08-23T02:54:58.042Z,100.00
2022-08-23T02:55:47.168Z,100.00
2022-08-23T02:56:34.723Z,100.00
2022-08-23T02:57:21.315Z,100.00
2022-08-23T02:58:08.291Z,100.00
2022-08-23T02:58:55.172Z,100.00
2022-08-23T02:59:43.316Z,100.00
2022-08-23T03:00:30.340Z,100.00
2022-08-23T03:01:23.357Z,100.00
2022-08-23T03:02:12.308Z,100.00
2022-08-23T03:03:01.699Z,100.00
2022-08-23T03:03:48.947Z,100.00
2022-08-23T03:04:35.839Z,100.00
2022-08-23T03:05:22.597Z,100.00
2022-08-23T03:06:25.716Z,100.00
2022-08-23T03:07:13.726Z,100.00
2022-08-23T03:08:00.422Z,100.00
2022-08-23T03:08:48.603Z,100.00
2022-08-23T03:09:35.490Z,100.00
2022-08-23T03:10:22.347Z,100.00
2022-08-23T03:11:18.359Z,100.00
2022-08-23T03:12:08.508Z,100.00
2022-08-23T03:12:58.714Z,100.00
2022-08-23T03:13:48.285Z,100.00
2022-08-23T03:14:35.336Z,100.00
2022-08-23T03:15:24.487Z,100.00
2022-08-23T03:16:11.987Z,100.00
2022-08-23T03:17:05.264Z,100.00
2022-08-23T03:17:51.902Z,100.00
2022-08-23T03:18:39.023Z,100.00
2022-08-23T03:19:26.855Z,100.00
2022-08-23T03:20:13.519Z,100.00
2022-08-23T03:21:00.132Z,100.00
2022-08-23T03:21:47.556Z,100.00
2022-08-23T03:22:37.758Z,100.00
2022-08-23T03:23:24.294Z,100.00
2022-08-23T03:24:11.528Z,100.00
2022-08-23T03:24:59.269Z,100.00
2022-08-23T03:25:58.128Z,100.00
2022-08-23T03:26:47.787Z,100.00
2022-08-23T03:27:38.457Z,100.00
2022-08-23T03:28:34.978Z,100.00
2022-08-23T03:29:22.672Z,100.00
2022-08-23T03:30:22.556Z,100.00
2022-08-23T03:31:16.956Z,100.00
2022-08-23T03:32:21.766Z,100.00
2022-08-23T03:33:12.051Z,100.00
2022-08-23T03:33:59.447Z,100.00
2022-08-23T03:34:46.034Z,100.00
2022-08-23T03:35:32.504Z,100.00
2022-08-23T03:36:21.023Z,100.00
2022-08-23T03:37:15.227Z,100.00
2022-08-23T03:38:01.791Z,100.00
2022-08-23T03:38:48.733Z,100.00
2022-08-23T03:39:36.796Z,100.00
2022-08-23T03:40:24.376Z,100.00
2022-08-23T03:41:12.097Z,100.00
2022-08-23T03:41:59.314Z,100.00
2022-08-23T03:42:51.267Z,100.00
2022-08-23T03:43:40.194Z,100.00
2022-08-23T03:44:27.352Z,100.00
2022-08-23T03:45:14.077Z,100.00
2022-08-23T03:46:00.561Z,100.00
2022-08-23T03:46:47.200Z,100.00
2022-08-23T03:47:35.588Z,100.00
2022-08-23T03:48:22.425Z,100.00
2022-08-23T03:49:09.066Z,100.00
2022-08-23T03:50:05.593Z,100.00
2022-08-23T03:50:54.637Z,100.00
2022-08-23T03:51:42.250Z,100.00
2022-08-23T03:52:29.303Z,100.00
2022-08-23T03:53:16.296Z,100.00
2022-08-23T03:54:05.224Z,100.00
2022-08-23T03:54:51.738Z,100.00
2022-08-23T03:55:44.156Z,100.00
2022-08-23T03:56:49.425Z,100.00
2022-08-23T03:57:36.490Z,100.00
2022-08-23T03:58:23.478Z,100.00
2022-08-23T03:59:13.606Z,100.00
2022-08-23T04:00:00.709Z,100.00
2022-08-23T04:00:49.352Z,100.00
2022-08-23T04:01:36.694Z,100.00
2022-08-23T04:02:24.208Z,100.00
2022-08-23T04:03:10.686Z,100.00
2022-08-23T04:04:14.181Z,100.00
2022-08-23T04:05:15.118Z,100.00
2022-08-23T04:06:28.894Z,100.00
2022-08-23T04:07:20.960Z,100.00
2022-08-23T04:08:11.817Z,100.00
2022-08-23T04:09:00.759Z,100.00
2022-08-23T04:09:49.229Z,100.00
2022-08-23T04:10:41.767Z,100.00
2022-08-23T04:11:28.274Z,100.00
2022-08-23T04:12:20.353Z,100.00
2022-08-23T04:13:08.980Z,100.00
2022-08-23T04:13:56.082Z,100.00
2022-08-23T04:14:42.640Z,100.00
2022-08-23T04:15:29.260Z,100.00
2022-08-23T04:16:15.826Z,100.00
2022-08-23T04:17:02.490Z,100.00
2022-08-23T04:17:49.392Z,100.00
2022-08-23T04:18:36.520Z,100.00
2022-08-23T04:19:25.784Z,100.00
2022-08-23T04:20:24.999Z,100.00
2022-08-23T04:21:20.269Z,100.00
2022-08-23T04:22:12.951Z,100.00
2022-08-23T04:23:01.017Z,100.00
2022-08-23T04:23:52.651Z,100.00
2022-08-23T04:24:41.989Z,100.00
2022-08-23T04:25:34.928Z,100.00
2022-08-23T04:26:25.150Z,100.00
2022-08-23T04:27:15.006Z,100.00
2022-08-23T04:28:03.983Z,100.00
2022-08-23T04:28:50.927Z,100.00
2022-08-23T04:29:39.850Z,100.00
2022-08-23T04:30:26.508Z,100.00
2022-08-23T04:31:13.358Z,100.00
2022-08-23T04:32:05.510Z,100.00
2022-08-23T04:32:54.690Z,100.00
2022-08-23T04:33:42.851Z,100.00
2022-08-23T04:34:34.220Z,100.00
2022-08-23T04:35:20.879Z,100.00
2022-08-23T04:36:08.296Z,100.00
2022-08-23T04:36:55.296Z,100.00
2022-08-23T04:37:43.118Z,100.00
2022-08-23T04:38:30.550Z,100.00
2022-08-23T04:39:22.033Z,100.00
2022-08-23T04:40:28.784Z,100.00
2022-08-23T04:41:34.761Z,100.00
2022-08-23T04:42:23.927Z,100.00
2022-08-23T04:43:11.417Z,100.00
2022-08-23T04:43:58.214Z,100.00
2022-08-23T04:44:48.052Z,100.00
2022-08-23T04:45:38.938Z,100.00
2022-08-23T04:46:27.192Z,100.00
2022-08-23T04:47:17.548Z,100.00
2022-08-23T04:48:04.516Z,100.00
2022-08-23T04:48:51.650Z,100.00
2022-08-23T04:49:39.578Z,100.00
2022-08-23T04:50:26.251Z,100.00
2022-08-23T04:51:32.523Z,100.00
2022-08-23T04:52:19.835Z,100.00
2022-08-23T04:53:08.157Z,100.00
2022-08-23T04:54:01.066Z,100.00
2022-08-23T04:54:59.236Z,100.00
2022-08-23T04:56:18.317Z,100.00
2022-08-23T04:57:04.817Z,100.00
2022-08-23T04:57:55.036Z,100.00
2022-08-23T04:58:45.284Z,100.00
2022-08-23T04:59:31.965Z,100.00
2022-08-23T05:00:18.528Z,100.00
2022-08-23T05:01:15.950Z,100.00
2022-08-23T05:02:03.849Z,100.00
2022-08-23T05:02:50.919Z,100.00
2022-08-23T05:03:38.305Z,100.00
2022-08-23T05:04:25.241Z,100.00
2022-08-23T05:05:12.805Z,100.00
2022-08-23T05:06:05.101Z,100.00
2022-08-23T05:06:57.783Z,100.00
2022-08-23T05:07:45.451Z,100.00
2022-08-23T05:08:32.768Z,100.00
2022-08-23T05:09:24.925Z,100.00
2022-08-23T05:10:14.585Z,100.00
2022-08-23T05:11:08.428Z,100.00
2022-08-23T05:11:56.142Z,100.00
2022-08-23T05:12:44.247Z,100.00
2022-08-23T05:13:32.821Z,100.00
2022-08-23T05:14:22.701Z,100.00
2022-08-23T05:15:09.883Z,100.00
2022-08-23T05:15:59.821Z,100.00
2022-08-23T05:16:50.825Z,100.00
2022-08-23T05:17:38.612Z,100.00
2022-08-23T05:18:27.358Z,100.00
2022-08-23T05:19:13.886Z,100.00
2022-08-23T05:20:08.605Z,100.00
2022-08-23T05:20:55.886Z,100.00
2022-08-23T05:21:43.545Z,100.00
2022-08-23T05:22:39.135Z,100.00
2022-08-23T05:23:57.752Z,100.00
2022-08-23T05:24:45.948Z,100.00
2022-08-23T05:25:52.976Z,100.00
2022-08-23T05:27:00.911Z,100.00
2022-08-23T05:27:49.333Z,100.00
2022-08-23T05:28:39.011Z,100.00
2022-08-23T05:29:26.217Z,100.00
2022-08-23T05:30:15.147Z,100.00
2022-08-23T05:31:06.884Z,100.00
2022-08-23T05:32:11.335Z,100.00
2022-08-23T05:32:57.949Z,100.00
2022-08-23T05:33:48.651Z,100.00
2022-08-23T05:34:42.029Z,100.00
2022-08-23T05:35:30.429Z,100.00
2022-08-23T05:36:19.207Z,100.00
2022-08-23T05:37:06.562Z,100.00
2022-08-23T05:38:01.876Z,100.00
2022-08-23T05:38:50.691Z,100.00
2022-08-23T05:39:37.604Z,100.00
2022-08-23T05:40:28.861Z,100.00
2022-08-23T05:41:37.873Z,100.00
2022-08-23T05:42:27.727Z,100.00
2022-08-23T05:43:14.406Z,100.00
2022-08-23T05:44:00.864Z,100.00
2022-08-23T05:44:53.360Z,100.00
2022-08-23T05:45:42.082Z,100.00
2022-08-23T05:46:33.728Z,100.00
2022-08-23T05:47:35.262Z,100.00
2022-08-23T05:48:51.770Z,100.00
2022-08-23T05:49:40.721Z,100.00
2022-08-23T05:50:27.334Z,100.00
2022-08-23T05:51:20.743Z,100.00
2022-08-23T05:52:11.947Z,100.00
2022-08-23T05:53:00.004Z,100.00
2022-08-23T05:53:48.957Z,100.00
2022-08-23T05:54:36.292Z,100.00
2022-08-23T05:55:41.488Z,100.00
2022-08-23T05:56:42.541Z,100.00
2022-08-23T05:57:38.483Z,100.00
2022-08-23T05:58:25.389Z,100.00
2022-08-23T05:59:15.880Z,100.00
2022-08-23T06:00:06.832Z,100.00
2022-08-23T06:01:07.831Z,100.00
2022-08-23T06:01:54.646Z,100.00
2022-08-23T06:02:42.885Z,100.00
2022-08-23T06:03:29.388Z,100.00
2022-08-23T06:04:17.857Z,100.00
2022-08-23T06:05:05.762Z,100.00
2022-08-23T06:05:59.935Z,100.00
2022-08-23T06:06:48.484Z,100.00
2022-08-23T06:07:35.742Z,100.00
2022-08-23T06:08:22.423Z,100.00
2022-08-23T06:09:13.179Z,100.00
2022-08-23T06:10:00.864Z,100.00
2022-08-23T06:10:47.486Z,100.00
2022-08-23T06:11:45.899Z,100.00
2022-08-23T06:12:33.611Z,100.00
2022-08-23T06:13:20.499Z,100.00
2022-08-23T06:14:09.149Z,100.00
2022-08-23T06:14:55.841Z,100.00
2022-08-23T06:15:44.159Z,100.00
2022-08-23T06:16:37.297Z,100.00
2022-08-23T06:17:25.494Z,100.00
2022-08-23T06:18:14.327Z,100.00
2022-08-23T06:19:02.872Z,100.00
2022-08-23T06:20:09.165Z,100.00
2022-08-23T06:21:17.024Z,100.00
2022-08-23T06:22:07.641Z,100.00
2022-08-23T06:22:59.002Z,100.00
2022-08-23T06:23:49.581Z,100.00
2022-08-23T06:24:36.705Z,100.00
2022-08-23T06:25:32.162Z,100.00
2022-08-23T06:26:31.842Z,100.00
2022-08-23T06:27:21.447Z,100.00
2022-08-23T06:28:09.538Z,100.00
2022-08-23T06:29:02.356Z,100.00
2022-08-23T06:29:49.675Z,100.00
2022-08-23T06:30:56.085Z,100.00
2022-08-23T06:31:51.037Z,100.00
2022-08-23T06:32:47.023Z,100.00
2022-08-23T06:33:51.543Z,100.00
2022-08-23T06:35:33.208Z,100.00
2022-08-23T06:36:27.913Z,100.00
2022-08-23T06:37:25.642Z,100.00
2022-08-23T06:38:42.387Z,100.00
2022-08-23T06:40:08.249Z,100.00
2022-08-23T06:41:11.575Z,100.00
2022-08-23T06:42:37.564Z,100.00
2022-08-23T06:43:22.640Z,100.00
2022-08-23T06:44:29.070Z,100.00
2022-08-23T06:45:35.477Z,100.00
2022-08-23T06:46:28.154Z,100.00
2022-08-23T06:47:16.871Z,100.00
2022-08-23T06:48:08.153Z,100.00
2022-08-23T06:48:55.743Z,100.00
2022-08-23T06:49:55.366Z,100.00
2022-08-23T06:51:03.255Z,100.00
2022-08-23T06:52:12.889Z,100.00
2022-08-23T06:53:33.264Z,100.00
2022-08-23T06:54:40.248Z,100.00
2022-08-23T06:55:45.831Z,100.00
2022-08-23T06:56:48.112Z,100.00
2022-08-23T06:57:38.281Z,100.00
2022-08-23T06:58:44.704Z,100.00
2022-08-23T06:59:50.866Z,100.00
2022-08-23T07:00:55.491Z,100.00
2022-08-23T07:02:06.474Z,100.00
2022-08-23T07:03:27.849Z,100.00
2022-08-23T07:04:38.067Z,100.00
2022-08-23T07:05:34.354Z,100.00
2022-08-23T07:06:34.108Z,100.00
2022-08-23T07:07:20.768Z,100.00
2022-08-23T07:08:08.167Z,100.00
2022-08-23T07:08:55.361Z,100.00
2022-08-23T07:09:42.006Z,100.00
2022-08-23T07:10:28.604Z,100.00
2022-08-23T07:11:15.284Z,100.00
2022-08-23T07:12:02.908Z,100.00
2022-08-23T07:12:51.227Z,100.00
2022-08-23T07:13:40.620Z,100.00
2022-08-23T07:14:28.525Z,100.00
2022-08-23T07:15:14.998Z,100.00
2022-08-23T07:16:04.566Z,100.00
2022-08-23T07:16:58.548Z,100.00
2022-08-23T07:17:45.765Z,100.00
2022-08-23T07:18:33.109Z,100.00
2022-08-23T07:19:29.276Z,100.00
2022-08-23T07:20:16.274Z,100.00
2022-08-23T07:21:06.091Z,100.00
2022-08-23T07:21:53.688Z,100.00
2022-08-23T07:22:40.451Z,100.00
2022-08-23T07:23:33.193Z,100.00
2022-08-23T07:24:22.549Z,100.00
2022-08-23T07:25:11.569Z,100.00
2022-08-23T07:26:08.977Z,100.00
2022-08-23T07:26:57.259Z,100.00
2022-08-23T07:27:44.609Z,100.00
2022-08-23T07:28:32.992Z,100.00
2022-08-23T07:29:22.289Z,100.00
2022-08-23T07:30:09.281Z,100.00
2022-08-23T07:31:14.530Z,100.00
2022-08-23T07:32:01.788Z,100.00
2022-08-23T07:32:48.553Z,100.00
2022-08-23T07:33:44.583Z,100.00
2022-08-23T07:34:36.076Z,100.00
2022-08-23T07:35:22.977Z,100.00
2022-08-23T07:36:22.102Z,100.00
2022-08-23T07:37:11.261Z,100.00
2022-08-23T07:38:02.716Z,100.00
2022-08-23T07:38:54.091Z,100.00
2022-08-23T07:39:40.961Z,100.00
2022-08-23T07:40:28.419Z,100.00
2022-08-23T07:41:18.109Z,100.00
2022-08-23T07:42:22.951Z,100.00
2022-08-23T07:43:11.513Z,100.00
2022-08-23T07:44:04.406Z,100.00
2022-08-23T07:44:53.525Z,100.00
2022-08-23T07:45:43.227Z,100.00
2022-08-23T07:46:33.033Z,100.00
2022-08-23T07:47:19.753Z,83.27
2022-08-23T07:48:07.302Z,76.36
2022-08-23T07:49:08.884Z,71.62
2022-08-23T07:49:58.423Z,71.39
2022-08-23T07:50:58.146Z,71.39
2022-08-23T07:51:50.260Z,71.17
2022-08-23T07:52:38.571Z,69.09
2022-08-23T07:53:31.801Z,71.39
2022-08-23T07:54:25.687Z,69.54
2022-08-23T07:55:27.277Z,68.28
2022-08-23T07:56:37.724Z,67.54
2022-08-23T07:57:47.747Z,67.82
2022-08-23T07:59:01.505Z,67.12
2022-08-23T07:59:54.887Z,66.92
2022-08-23T08:01:12.462Z,67.03
2022-08-23T08:02:05.275Z,67.17
2022-08-23T08:02:53.390Z,65.73
2022-08-23T08:03:49.625Z,66.63
2022-08-23T08:04:45.696Z,65.70
2022-08-23T08:05:34.991Z,65.69
2022-08-23T08:06:28.956Z,65.90
2022-08-23T08:07:20.755Z,65.93
2022-08-23T08:08:16.711Z,64.92
2022-08-23T08:09:04.598Z,64.77
2022-08-23T08:09:51.175Z,64.80
2022-08-23T08:10:43.994Z,65.77
2022-08-23T08:11:34.912Z,65.44
2022-08-23T08:12:23.281Z,65.69
2022-08-23T08:14:01.551Z,63.83
2022-08-23T08:14:48.744Z,64.12
2022-08-23T08:15:42.076Z,64.07
2022-08-23T08:16:39.244Z,64.06
2022-08-23T08:17:27.653Z,63.38
2022-08-23T08:18:32.723Z,63.64
2022-08-23T08:19:41.925Z,63.63
2022-08-23T08:20:47.942Z,62.84
2022-08-23T08:21:53.159Z,61.12
2022-08-23T08:23:00.525Z,61.17
2022-08-23T08:23:57.525Z,60.33
2022-08-23T08:25:02.938Z,60.06
2022-08-23T08:25:49.635Z,60.18
2022-08-23T08:26:40.952Z,59.81
2022-08-23T08:27:27.422Z,60.58
2022-08-23T08:28:16.101Z,59.75
2022-08-23T08:29:03.354Z,58.69
2022-08-23T08:29:50.030Z,59.96
2022-08-23T08:30:36.598Z,59.71
2022-08-23T08:31:25.552Z,60.71
2022-08-23T08:32:13.874Z,59.59
2022-08-23T08:33:00.997Z,58.76
2022-08-23T08:33:48.736Z,59.23
2022-08-23T08:34:36.125Z,57.90
2022-08-23T08:35:24.335Z,58.29
2022-08-23T08:36:35.241Z,58.20
2022-08-23T08:37:24.005Z,59.31
2022-08-23T08:38:10.504Z,57.98
2022-08-23T08:39:00.727Z,58.14
2022-08-23T08:39:47.667Z,58.50
2022-08-23T08:40:40.338Z,57.53
2022-08-23T08:41:57.450Z,57.25
2022-08-23T08:43:11.026Z,56.59
2022-08-23T08:44:39.610Z,57.45
2022-08-23T08:45:38.915Z,57.29
2022-08-23T08:46:45.339Z,56.81
2022-08-23T08:47:47.568Z,56.92
2022-08-23T08:48:50.255Z,56.84
2022-08-23T08:49:49.702Z,56.55
2022-08-23T08:50:41.509Z,56.64
2022-08-23T08:51:44.869Z,55.42
2022-08-23T08:52:41.383Z,55.85
2022-08-23T08:53:45.405Z,56.17
2022-08-23T08:54:32.657Z,56.59
2022-08-23T08:55:32.887Z,57.31
2022-08-23T08:56:32.380Z,55.70
2022-08-23T08:57:40.944Z,56.53
2022-08-23T08:58:30.280Z,56.49
2022-08-23T08:59:25.507Z,55.78
2022-08-23T09:00:16.895Z,55.91
2022-08-23T09:01:20.417Z,55.67
2022-08-23T09:02:31.946Z,55.52
2022-08-23T09:03:22.335Z,55.03
2022-08-23T09:04:11.049Z,55.67
2022-08-23T09:05:05.830Z,55.39
2022-08-23T09:06:16.270Z,56.21
2022-08-23T09:07:33.401Z,55.83
2022-08-23T09:09:03.451Z,56.54
2022-08-23T09:10:27.441Z,56.69
2022-08-23T09:11:47.693Z,54.94
2022-08-23T09:13:03.473Z,55.09
2022-08-23T09:14:10.512Z,54.68
2022-08-23T09:15:11.937Z,54.00
2022-08-23T09:16:15.979Z,55.51
2022-08-23T09:17:06.299Z,54.05
2022-08-23T09:18:03.563Z,53.43
2022-08-23T09:18:51.383Z,54.39
2022-08-23T09:19:40.012Z,55.46
2022-08-23T09:20:33.328Z,55.99
2022-08-23T09:21:22.430Z,55.33
2022-08-23T09:22:17.661Z,53.58
2022-08-23T09:23:15.245Z,53.98
2022-08-23T09:24:02.529Z,53.50
2022-08-23T09:25:04.816Z,53.85
2022-08-23T09:26:19.024Z,54.54
2022-08-23T09:27:06.207Z,55.46
2022-08-23T09:27:52.995Z,54.74
2022-08-23T09:28:39.582Z,52.75
2022-08-23T09:29:35.320Z,52.83
2022-08-23T09:30:24.332Z,53.55
2022-08-23T09:31:12.232Z,54.12
2022-08-23T09:32:06.038Z,54.40
2022-08-23T09:33:14.125Z,52.81
2022-08-23T09:34:01.330Z,52.99
2022-08-23T09:35:14.013Z,54.92
2022-08-23T09:36:25.347Z,52.48
2022-08-23T09:37:22.096Z,52.46
2022-08-23T09:38:20.393Z,54.27
2022-08-23T09:39:30.635Z,52.45
2022-08-23T09:40:43.773Z,51.57
2022-08-23T09:41:36.931Z,52.87
2022-08-23T09:42:36.949Z,52.34
2022-08-23T09:43:28.788Z,50.77
2022-08-23T09:44:39.187Z,50.77
2022-08-23T09:45:35.890Z,50.70
2022-08-23T09:46:28.585Z,51.31
2022-08-23T09:47:17.131Z,52.12
2022-08-23T09:48:15.227Z,51.26
2022-08-23T09:49:27.769Z,51.24
2022-08-23T09:50:22.561Z,50.85
2022-08-23T09:51:22.371Z,50.50
2022-08-23T09:52:25.331Z,51.18
2022-08-23T09:53:27.980Z,51.43
2022-08-23T09:54:22.870Z,49.92
2022-08-23T09:55:37.341Z,50.50
2022-08-23T09:56:27.592Z,50.97
2022-08-23T09:57:27.786Z,49.76
2022-08-23T09:58:38.659Z,49.75
2022-08-23T09:59:27.065Z,48.50
2022-08-23T10:00:32.400Z,48.45
2022-08-23T10:01:23.879Z,48.28
2022-08-23T10:02:30.348Z,48.59
2022-08-23T10:03:27.447Z,49.70
2022-08-23T10:04:30.999Z,48.42
2022-08-23T10:05:36.060Z,49.11
2022-08-23T10:06:33.824Z,49.09
2022-08-23T10:07:38.659Z,49.06
2022-08-23T10:08:35.432Z,50.02
2022-08-23T10:09:33.808Z,48.56
2022-08-23T10:10:49.727Z,47.89
2022-08-23T10:11:45.866Z,48.74
2022-08-23T10:12:32.942Z,48.00
2022-08-23T10:13:21.769Z,48.03
2022-08-23T10:14:15.089Z,48.89
2022-08-23T10:15:02.199Z,48.26
2022-08-23T10:16:12.987Z,47.21
2022-08-23T10:17:41.977Z,47.60
2022-08-23T10:18:53.241Z,47.24
2022-08-23T10:20:17.103Z,46.42
2022-08-23T10:21:39.126Z,47.39
2022-08-23T10:22:28.556Z,47.76
2022-08-23T10:24:03.847Z,46.22
2022-08-23T10:25:06.058Z,47.45
2022-08-23T10:25:58.385Z,47.40
2022-08-23T10:27:31.055Z,46.70
2022-08-23T10:28:51.462Z,46.51
2022-08-23T10:29:48.527Z,46.50
2022-08-23T10:31:07.637Z,46.81
2022-08-23T10:32:11.778Z,46.54
2022-08-23T10:33:18.462Z,46.88
2022-08-23T10:34:30.127Z,47.04
2022-08-23T10:35:25.960Z,46.48
2022-08-23T10:36:28.897Z,47.32
2022-08-23T10:37:27.519Z,46.15
2022-08-23T10:38:45.013Z,45.98
2022-08-23T10:39:32.416Z,45.15
2022-08-23T10:40:33.689Z,45.37
2022-08-23T10:41:48.542Z,45.72
2022-08-23T10:43:04.430Z,46.24
2022-08-23T10:44:27.740Z,45.63
2022-08-23T10:45:25.449Z,45.40
2022-08-23T10:46:13.102Z,46.67
2022-08-23T10:47:16.263Z,45.73
2022-08-23T10:48:12.256Z,43.83
2022-08-23T10:49:01.663Z,44.51
2022-08-23T10:49:53.646Z,44.13
2022-08-23T10:50:55.962Z,44.37
2022-08-23T10:51:48.938Z,43.97
2022-08-23T10:53:12.013Z,43.69
2022-08-23T10:54:06.194Z,43.89
2022-08-23T10:55:01.007Z,44.32
2022-08-23T10:56:03.109Z,45.01
2022-08-23T10:56:52.828Z,43.53
2022-08-23T10:57:41.650Z,43.26
2022-08-23T10:58:36.641Z,43.36
2022-08-23T10:59:27.261Z,44.38
2022-08-23T11:00:26.663Z,43.80
2022-08-23T11:01:51.191Z,43.13
2022-08-23T11:03:04.634Z,42.68
2022-08-23T11:04:00.243Z,43.13
2022-08-23T11:05:27.025Z,42.59
2022-08-23T11:06:36.956Z,42.36
2022-08-23T11:07:31.540Z,42.67
2022-08-23T11:08:47.711Z,42.94
2022-08-23T11:09:50.980Z,41.05
2022-08-23T11:10:38.054Z,41.36
2022-08-23T11:11:48.898Z,41.90
2022-08-23T11:12:57.213Z,41.96
2022-08-23T11:13:53.099Z,42.77
2022-08-23T11:14:48.237Z,41.96
2022-08-23T11:15:44.846Z,43.12
2022-08-23T11:16:33.862Z,42.28
2022-08-23T11:17:28.222Z,42.83
2022-08-23T11:18:35.768Z,42.44
2022-08-23T11:19:48.371Z,42.51
2022-08-23T11:20:49.853Z,43.24
2022-08-23T11:21:46.026Z,42.10